Latest Weather Observations for Yanakie

IDV60801

Issued at 11:35 pm EST Monday 1 September 2014 (issued every 30 minutes, with the page automatically refreshed every 10 minutes)

About weather observations | Map of weather stations | Latest weather observations for VIC | Other Formats
Station Details ID: 085301 Name: YANAKIE Lat: -38.81 Lon: 146.19 Height: 13.3 m
Data from the previous 72 hours. | See also: Recent months at Yanakie
Date/Time
EST
Temp
°C
App
Temp
°C
Dew
Point
Rel
Hum
%
Delta-T
°C
Wind Press
QNH
hPa
Press
MSL
hPa
Rain
since 9 am
mm
Dir
 
Spd
km/h
Gust
km/h
Spd
kts
Gust
kts
01/11:30pm 11.3 6.4 8.5 83 1.4 SW 24 32 13 17 1010.9 1010.9 4.0
01/11:00pm 11.2 7.0 8.2 82 1.5 WSW 20 26 11 14 1011.0 1011.0 4.0
01/10:30pm 11.4 6.8 8.1 80 1.6 WSW 22 28 12 15 1011.0 1011.0 4.0
01/10:00pm 11.5 7.3 8.4 81 1.5 WSW 20 28 11 15 1010.8 1010.8 4.0
01/09:30pm 11.4 7.3 8.6 83 1.4 SW 20 28 11 15 1010.4 1010.4 4.0
01/09:00pm 11.6 7.2 8.8 83 1.4 WSW 22 30 12 16 1010.4 1010.4 4.0
01/08:30pm 11.3 7.3 9.0 86 1.1 SW 20 26 11 14 1009.9 1009.9 4.0
01/08:00pm 11.5 7.9 9.9 90 0.8 SW 19 30 10 16 1009.9 1009.9 4.0
01/07:30pm 11.4 8.2 10.1 92 0.7 WSW 17 22 9 12 1009.7 1009.7 4.0
01/07:00pm 11.4 8.4 10.5 94 0.5 WSW 17 24 9 13 1009.5 1009.5 4.0
01/06:30pm 11.5 7.9 10.6 94 0.5 WSW 20 28 11 15 1008.9 1008.9 4.0
01/06:00pm 11.3 8.6 10.4 94 0.5 WSW 15 20 8 11 1008.4 1008.4 3.6
01/05:30pm 11.2 7.5 10.3 94 0.5 SW 20 35 11 19 1008.1 1008.1 3.2
01/05:00pm 11.5 8.4 10.4 93 0.6 WNW 17 28 9 15 1007.7 1007.7 1.2
01/04:30pm 11.6 7.6 10.5 93 0.6 NW 22 32 12 17 1007.3 1007.3 1.2
01/04:00pm 11.6 8.2 10.5 93 0.6 NW 19 24 10 13 1007.4 1007.4 1.2
01/03:30pm 11.9 8.5 10.5 91 0.7 WNW 19 30 10 16 1007.6 1007.6 0.8
01/03:00pm 12.1 8.7 10.5 90 0.8 NW 19 24 10 13 1007.3 1007.3 0.8
01/02:30pm 12.1 8.4 10.3 89 0.9 NW 20 30 11 16 1007.5 1007.5 0.6
01/02:00pm 12.1 8.0 10.2 88 1.0 NW 22 32 12 17 1007.6 1007.6 0.6
01/01:30pm 12.5 7.6 10.0 85 1.3 NW 26 33 14 18 1007.3 1007.3 0.6
01/01:00pm 12.8 7.9 10.0 83 1.4 WNW 26 39 14 21 1007.5 1007.5 0.4
01/12:32pm 13.8 8.2 8.6 71 2.6 WNW 28 46 15 25 1007.5 1007.5 0.0
01/12:30pm 14.2 8.6 8.8 70 2.7 WNW 28 44 15 24 1007.4 1007.4 0.0
01/12:00pm 15.7 9.7 8.7 63 3.6 WNW 30 39 16 21 1007.4 1007.4 0.0
01/11:30am 16.6 12.2 8.8 60 4.0 WNW 22 33 12 18 1007.4 1007.4 0.0
01/11:00am 15.6 11.5 8.6 63 3.6 W 20 30 11 16 1008.1 1008.1 0.0
01/10:30am 15.3 12.6 8.8 65 3.3 WNW 13 20 7 11 1008.1 1008.1 0.0
01/10:00am 16.1 13.2 9.5 65 3.4 W 15 20 8 11 1008.2 1008.2 0.0
01/09:30am 16.6 14.6 8.8 60 4.0 W 9 13 5 7 1008.1 1008.1 0.0
01/09:00am 15.4 14.2 9.5 68 3.1 NW 6 9 3 5 1007.8 1007.8 0.0
01/08:30am 16.2 13.8 6.9 54 4.6 N 9 11 5 6 1007.6 1007.6 0.0
01/08:00am 15.6 13.8 7.1 57 4.2 N 6 9 3 5 1007.7 1007.7 0.0
01/07:30am 15.2 13.5 7.7 61 3.7 N 6 11 3 6 1007.8 1007.8 0.0
01/07:00am 15.8 13.4 6.8 55 4.4 N 9 19 5 10 1007.2 1007.2 0.0
01/06:30am 15.8 13.4 7.1 56 4.3 N 9 13 5 7 1007.3 1007.3 0.0
01/06:00am 16.3 13.8 6.4 52 4.9 N 9 17 5 9 1007.2 1007.2 0.0
01/05:30am 16.5 13.1 6.1 50 5.1 N 13 26 7 14 1007.8 1007.8 0.0
01/05:00am 16.0 12.8 6.7 54 4.6 N 13 20 7 11 1007.9 1007.9 0.0
01/04:30am 15.9 13.1 6.9 55 4.4 N 11 19 6 10 1007.8 1007.8 0.0
01/04:00am 15.1 12.5 7.6 61 3.7 NNE 11 13 6 7 1007.9 1007.9 0.0
01/03:30am 15.3 13.2 8.3 63 3.5 NNE 9 11 5 6 1008.3 1008.3 0.0
01/03:00am 14.5 13.1 9.5 72 2.6 NE 7 13 4 7 1008.6 1008.6 0.0
01/02:30am 13.8 12.2 10.2 79 1.9 ENE 9 11 5 6 1009.1 1009.1 0.0
01/02:00am 13.7 12.6 9.9 78 2.0 ENE 6 9 3 5 1009.5 1009.5 0.0
01/01:30am 14.4 13.4 10.2 76 2.2 E 6 9 3 5 1009.8 1009.8 0.0
01/01:00am 14.4 13.1 10.0 75 2.3 ENE 7 13 4 7 1009.8 1009.8 0.0
01/12:30am 14.3 13.1 10.3 77 2.1 E 7 13 4 7 1010.0 1010.0 0.0
01/12:00am 14.8 13.5 9.8 72 2.6 ENE 7 11 4 6 1010.2 1010.2 0.0
 
Date/Time
EST
Temp
°C
App
Temp
°C
Dew
Point
Rel
Hum
%
Delta-T
°C
Wind Press
QNH
hPa
Press
MSL
hPa
Rain
since 9 am
mm
Dir
 
Spd
km/h
Gust
km/h
Spd
kts
Gust
kts
31/11:30pm 14.0 11.8 9.4 74 2.4 ENE 11 15 6 8 1010.6 1010.6 0.0
31/11:00pm 13.4 11.9 9.1 75 2.2 NE 7 9 4 5 1011.2 1011.2 0.0
31/10:30pm 13.7 11.8 9.0 73 2.4 NE 9 11 5 6 1011.9 1011.9 0.0
31/10:00pm 15.0 12.9 9.6 70 2.8 NE 11 17 6 9 1012.2 1012.2 0.0
31/09:30pm 14.4 13.3 11.9 85 1.3 NE 9 17 5 9 1012.7 1012.7 0.0
31/09:00pm 13.5 12.2 11.4 87 1.1 NE 9 11 5 6 1012.9 1012.9 0.0
31/08:30pm 13.3 11.9 11.0 86 1.2 ENE 9 11 5 6 1013.1 1013.1 0.0
31/08:00pm 14.0 12.7 11.3 84 1.4 ENE 9 15 5 8 1013.3 1013.3 0.0
31/07:30pm 13.8 11.9 10.6 81 1.7 E 11 15 6 8 1013.3 1013.3 0.0
31/07:00pm 13.5 12.3 10.3 81 1.7 ENE 7 11 4 6 1013.6 1013.6 0.0
31/06:30pm 13.3 12.1 9.7 79 1.8 E 6 9 3 5 1013.7 1013.7 0.0
31/06:00pm 14.1 12.1 10.1 77 2.1 E 11 15 6 8 1013.6 1013.6 0.0
31/05:30pm 14.8 13.3 10.4 75 2.3 E 9 13 5 7 1013.6 1013.6 0.0
31/05:00pm 15.2 14.1 10.6 74 2.4 E 7 11 4 6 1013.7 1013.7 0.0
31/04:30pm 16.3 14.5 10.8 70 2.9 ENE 11 15 6 8 1013.7 1013.7 0.0
31/04:00pm 18.2 16.4 11.0 63 3.9 E 11 15 6 8 1013.6 1013.6 0.0
31/03:30pm 19.1 17.6 11.9 63 4.0 E 11 19 6 10 1013.8 1013.8 0.0
31/03:00pm 20.0 17.6 9.9 52 5.4 NNW 13 20 7 11 1014.2 1014.2 0.0
31/02:30pm 20.6 18.0 10.7 53 5.4 N 15 22 8 12 1014.5 1014.5 0.0
31/02:00pm 20.2 17.6 9.2 49 5.8 NNW 13 20 7 11 1014.8 1014.8 0.0
31/01:30pm 20.1 17.2 9.7 51 5.6 N 15 22 8 12 1015.1 1015.1 0.0
31/01:00pm 19.6 18.8 11.6 60 4.4 NE 7 15 4 8 1015.5 1015.5 0.0
31/12:30pm 18.9 18.3 12.2 65 3.7 NNE 7 11 4 6 1015.9 1015.9 0.0
31/12:00pm 18.3 17.2 12.1 67 3.4 NE 9 13 5 7 1016.3 1016.3 0.0
31/11:30am 17.8 16.7 12.0 69 3.2 NE 9 15 5 8 1016.9 1016.9 0.0
31/11:00am 16.5 16.0 12.7 78 2.1 NE 7 13 4 7 1017.5 1017.5 0.0
31/10:30am 15.6 15.1 12.7 83 1.6 ENE 7 13 4 7 1017.8 1017.8 0.0
31/10:00am 14.7 13.9 12.9 89 1.0 ENE 9 11 5 6 1018.3 1018.3 0.0
31/09:30am 13.6 12.7 12.5 93 0.6 NE 9 13 5 7 1018.7 1018.7 0.0
31/09:00am 12.7 12.0 11.9 95 0.4 NE 7 9 4 5 1018.8 1018.8 0.0
31/08:30am 11.4 10.0 10.8 96 0.3 NNE 9 13 5 7 1018.9 1018.9 0.0
31/08:00am 10.2 8.8 9.7 97 0.3 NNE 7 11 4 6 1019.1 1019.1 0.0
31/07:30am 9.1 7.1 8.6 97 0.2 NNE 9 11 5 6 1019.3 1019.3 0.0
31/07:00am 7.7 5.9 7.3 97 0.2 NNE 6 9 3 5 1019.2 1019.2 0.0
31/06:30am 7.9 6.2 7.5 97 0.2 NNE 6 7 3 4 1019.1 1019.1 0.0
31/06:00am 8.0 6.3 7.4 96 0.3 NE 6 9 3 5 1018.8 1018.8 0.0
31/05:30am 8.7 7.1 8.1 96 0.3 NE 6 9 3 5 1018.7 1018.7 0.0
31/05:00am 9.2 7.7 8.6 96 0.3 NE 6 9 3 5 1018.8 1018.8 0.0
31/04:30am 9.6 8.0 8.8 95 0.4 ENE 7 9 4 5 1018.9 1018.9 0.0
31/04:00am 9.6 8.0 8.8 95 0.4 ENE 7 11 4 6 1018.8 1018.8 0.0
31/03:30am 9.4 7.8 8.6 95 0.4 E 7 9 4 5 1019.1 1019.1 0.0
31/03:00am 9.5 7.9 8.6 94 0.4 E 7 9 4 5 1019.2 1019.2 0.0
31/02:30am 9.3 7.6 8.4 94 0.4 E 7 9 4 5 1019.7 1019.7 0.0
31/02:00am 9.4 7.9 8.3 93 0.5 ENE 6 9 3 5 1019.9 1019.9 0.0
31/01:30am 9.6 8.1 8.4 92 0.6 ENE 6 9 3 5 1020.2 1020.2 0.0
31/01:00am 10.7 8.9 9.5 92 0.6 ENE 9 13 5 7 1020.4 1020.4 0.0
31/12:30am 10.9 8.3 9.5 91 0.7 ENE 13 17 7 9 1020.7 1020.7 0.0
31/12:00am 11.2 8.7 9.6 90 0.8 ENE 13 20 7 11 1021.0 1021.0 0.0
 
Date/Time
EST
Temp
°C
App
Temp
°C
Dew
Point
Rel
Hum
%
Delta-T
°C
Wind Press
QNH
hPa
Press
MSL
hPa
Rain
since 9 am
mm
Dir
 
Spd
km/h
Gust
km/h
Spd
kts
Gust
kts
30/11:30pm 11.4 8.5 9.8 90 0.8 ENE 15 20 8 11 1021.4 1021.4 0.0
30/11:00pm 11.5 9.0 9.8 89 0.9 ENE 13 17 7 9 1022.0 1022.0 0.0
30/10:30pm 11.8 9.0 9.9 88 1.0 ENE 15 20 8 11 1022.3 1022.3 0.0
30/10:00pm 12.0 9.2 9.9 87 1.1 ENE 15 24 8 13 1022.7 1022.7 0.0
30/09:30pm 12.2 9.0 9.8 85 1.2 ENE 17 24 9 13 1022.7 1022.7 0.0
30/09:00pm 12.3 8.7 9.7 84 1.3 ENE 19 28 10 15 1022.8 1022.8 0.0
30/08:30pm 12.4 8.5 9.6 83 1.4 ENE 20 32 11 17 1022.6 1022.6 0.0
30/08:00pm 12.6 8.4 9.6 82 1.5 ENE 22 32 12 17 1022.5 1022.5 0.0
30/07:30pm 12.5 8.3 9.9 84 1.3 ENE 22 32 12 17 1022.6 1022.6 0.0
30/07:00pm 12.6 8.4 9.6 82 1.5 ENE 22 30 12 16 1022.8 1022.8 0.0
30/06:30pm 12.7 8.4 9.5 81 1.6 ENE 22 33 12 18 1022.9 1022.9 0.0
30/06:00pm 12.6 10.1 9.6 82 1.5 E 13 24 7 13 1022.9 1022.9 0.0
30/05:30pm 13.2 10.6 9.3 77 2.0 E 13 20 7 11 1022.7 1022.7 0.0
30/05:00pm 13.9 10.6 9.5 75 2.2 E 17 24 9 13 1022.6 1022.6 0.0
30/04:30pm 14.4 11.1 9.6 73 2.5 E 17 24 9 13 1022.7 1022.7 0.0
30/04:00pm 15.0 11.4 9.8 71 2.7 E 19 30 10 16 1022.6 1022.6 0.0
30/03:30pm 15.2 11.5 9.6 69 2.9 E 19 30 10 16 1022.7 1022.7 0.0
30/03:00pm 15.4 11.8 9.7 69 2.9 E 19 30 10 16 1022.8 1022.8 0.0
30/02:30pm 15.3 11.0 9.4 68 3.0 E 22 32 12 17 1023.1 1023.1 0.0
30/02:00pm 15.3 10.7 9.7 69 2.9 E 24 35 13 19 1023.2 1023.2 0.0
30/01:30pm 15.8 12.1 10.1 69 3.0 E 20 33 11 18 1023.5 1023.5 0.0
30/01:00pm 16.0 12.3 10.3 69 3.0 E 20 33 11 18 1023.8 1023.8 0.0
30/12:30pm 16.0 11.3 9.4 65 3.4 E 24 33 13 18 1024.1 1024.1 0.0
30/12:00pm 15.6 11.0 9.5 67 3.1 E 24 37 13 20 1024.6 1024.6 0.0
30/11:30am 15.3 10.5 10.3 72 2.6 E 26 37 14 20 1025.2 1025.2 0.0
30/11:00am 14.8 9.6 10.4 75 2.3 ENE 28 41 15 22 1025.6 1025.6 0.0
30/10:30am 14.5 9.6 10.1 75 2.3 ENE 26 37 14 20 1026.2 1026.2 0.0
30/10:00am 13.9 9.0 10.1 78 2.0 ENE 26 37 14 20 1026.7 1026.7 0.0
30/09:30am 13.4 8.1 9.8 79 1.8 ENE 28 37 15 20 1026.8 1026.8 0.0
30/09:00am 13.2 8.3 9.8 80 1.7 ENE 26 35 14 19 1027.0 1027.0 0.2
30/08:30am 12.8 7.9 9.8 82 1.5 ENE 26 33 14 18 1027.0 1027.0 0.2
30/08:00am 12.4 8.7 10.0 85 1.2 ENE 20 30 11 16 1027.3 1027.3 0.2
30/07:30am 11.9 8.1 9.8 87 1.1 ENE 20 32 11 17 1027.2 1027.2 0.2
30/07:00am 11.5 7.3 9.6 88 1.0 ENE 22 32 12 17 1027.0 1027.0 0.2
30/06:30am 11.3 6.7 9.6 89 0.9 ENE 24 32 13 17 1026.7 1026.7 0.2
30/06:00am 11.2 7.6 9.8 91 0.7 ENE 19 28 10 15 1026.7 1026.7 0.2
30/05:30am 11.4 7.7 10.3 93 0.6 ENE 20 30 11 16 1026.8 1026.8 0.2
30/05:00am 11.4 8.0 10.6 95 0.4 ENE 19 28 10 15 1026.7 1026.7 0.2
30/04:30am 11.3 7.4 10.7 96 0.3 ENE 22 30 12 16 1026.5 1026.5 0.2
30/04:00am 11.3 7.5 11.0 98 0.2 ENE 22 30 12 16 1026.5 1026.5 0.2
30/03:30am 11.1 7.2 10.8 98 0.2 ENE 22 28 12 15 1026.8 1026.8 0.2
30/03:00am 11.1 7.8 10.9 99 0.1 ENE 19 28 10 15 1027.0 1027.0 0.2
30/02:30am 10.9 7.5 10.7 99 0.1 ENE 19 26 10 14 1027.3 1027.3 0.0
30/02:00am 10.7 8.0 10.5 99 0.1 ENE 15 20 8 11 1027.6 1027.6 0.0
30/01:30am 11.0 8.4 10.7 98 0.2 ENE 15 22 8 12 1027.8 1027.8 0.0
30/01:00am 11.3 8.8 11.0 98 0.2 ENE 15 20 8 11 1028.0 1028.0 0.0
30/12:30am 11.3 9.2 11.0 98 0.2 ENE 13 19 7 10 1028.2 1028.2 0.0
30/12:00am 11.0 9.2 10.7 98 0.2 ENE 11 15 6 8 1028.4 1028.4 0.0

Other Formats:

Comma delimited format used in spreadsheet applications
http://www.bom.gov.au/fwo/IDV60801/IDV60801.94911.axf

JavaScript Object Notation format (JSON) in row-major order
http://www.bom.gov.au/fwo/IDV60801/IDV60801.94911.json